sensor_id;sensor_type;location;lat;lon;timestamp;P1;durP1;ratioP1;P2;durP2;ratioP2
27505;SDS011;14939;43.596;1.320;2023-04-16T00:00:00;7.45;;;1.52;;
27505;SDS011;14939;43.596;1.320;2023-04-16T00:02:38;6.80;;;1.30;;
27505;SDS011;14939;43.596;1.320;2023-04-16T00:05:17;8.23;;;1.52;;
27505;SDS011;14939;43.596;1.320;2023-04-16T00:14:10;8.45;;;1.50;;
27505;SDS011;14939;43.596;1.320;2023-04-16T00:16:41;12.05;;;1.75;;
27505;SDS011;14939;43.596;1.320;2023-04-16T00:19:18;4.85;;;1.58;;
27505;SDS011;14939;43.596;1.320;2023-04-16T00:22:04;6.82;;;1.38;;
27505;SDS011;14939;43.596;1.320;2023-04-16T00:24:41;8.87;;;1.40;;
27505;SDS011;14939;43.596;1.320;2023-04-16T00:27:17;7.22;;;1.55;;
27505;SDS011;14939;43.596;1.320;2023-04-16T00:33:20;6.47;;;1.40;;
27505;SDS011;14939;43.596;1.320;2023-04-16T00:35:54;7.10;;;1.57;;
27505;SDS011;14939;43.596;1.320;2023-04-16T00:38:30;9.10;;;1.45;;
27505;SDS011;14939;43.596;1.320;2023-04-16T00:41:05;6.73;;;1.20;;
27505;SDS011;14939;43.596;1.320;2023-04-16T00:46:28;9.30;;;1.40;;
27505;SDS011;14939;43.596;1.320;2023-04-16T00:49:17;8.55;;;1.73;;
27505;SDS011;14939;43.596;1.320;2023-04-16T00:51:48;8.15;;;1.70;;
27505;SDS011;14939;43.596;1.320;2023-04-16T00:54:19;10.50;;;1.70;;
27505;SDS011;14939;43.596;1.320;2023-04-16T00:56:53;9.38;;;1.50;;
27505;SDS011;14939;43.596;1.320;2023-04-16T00:59:56;5.78;;;1.38;;
27505;SDS011;14939;43.596;1.320;2023-04-16T01:02:28;11.45;;;1.80;;
27505;SDS011;14939;43.596;1.320;2023-04-16T01:07:36;13.73;;;1.70;;
27505;SDS011;14939;43.596;1.320;2023-04-16T01:10:17;8.57;;;1.92;;
27505;SDS011;14939;43.596;1.320;2023-04-16T01:13:06;7.40;;;1.70;;
27505;SDS011;14939;43.596;1.320;2023-04-16T01:16:02;7.47;;;1.50;;
27505;SDS011;14939;43.596;1.320;2023-04-16T01:18:40;7.90;;;1.55;;
27505;SDS011;14939;43.596;1.320;2023-04-16T01:21:35;9.45;;;2.13;;
27505;SDS011;14939;43.596;1.320;2023-04-16T01:24:35;9.88;;;1.83;;
27505;SDS011;14939;43.596;1.320;2023-04-16T01:27:06;7.63;;;1.73;;
27505;SDS011;14939;43.596;1.320;2023-04-16T01:29:35;10.80;;;1.63;;
27505;SDS011;14939;43.596;1.320;2023-04-16T01:32:06;6.55;;;1.60;;
27505;SDS011;14939;43.596;1.320;2023-04-16T01:34:37;11.27;;;1.70;;
27505;SDS011;14939;43.596;1.320;2023-04-16T01:37:12;8.98;;;1.90;;
27505;SDS011;14939;43.596;1.320;2023-04-16T01:39:58;10.20;;;1.50;;
27505;SDS011;14939;43.596;1.320;2023-04-16T01:42:27;7.53;;;1.70;;
27505;SDS011;14939;43.596;1.320;2023-04-16T01:45:05;10.98;;;2.00;;
27505;SDS011;14939;43.596;1.320;2023-04-16T01:48:04;10.52;;;1.77;;
27505;SDS011;14939;43.596;1.320;2023-04-16T01:50:47;8.05;;;1.65;;
27505;SDS011;14939;43.596;1.320;2023-04-16T01:53:24;11.98;;;1.70;;
27505;SDS011;14939;43.596;1.320;2023-04-16T01:55:53;10.90;;;2.10;;
27505;SDS011;14939;43.596;1.320;2023-04-16T01:58:27;11.05;;;1.75;;
27505;SDS011;14939;43.596;1.320;2023-04-16T02:04:03;8.48;;;1.60;;
27505;SDS011;14939;43.596;1.320;2023-04-16T02:06:38;10.13;;;1.92;;
27505;SDS011;14939;43.596;1.320;2023-04-16T02:09:05;13.70;;;2.00;;
27505;SDS011;14939;43.596;1.320;2023-04-16T02:11:49;11.95;;;2.00;;
27505;SDS011;14939;43.596;1.320;2023-04-16T02:14:15;11.93;;;2.17;;
27505;SDS011;14939;43.596;1.320;2023-04-16T02:16:53;8.77;;;2.20;;
27505;SDS011;14939;43.596;1.320;2023-04-16T02:19:49;12.00;;;2.20;;
27505;SDS011;14939;43.596;1.320;2023-04-16T02:22:36;8.18;;;1.70;;
27505;SDS011;14939;43.596;1.320;2023-04-16T02:25:20;14.93;;;2.22;;
27505;SDS011;14939;43.596;1.320;2023-04-16T02:27:59;14.82;;;2.28;;
27505;SDS011;14939;43.596;1.320;2023-04-16T02:33:08;16.17;;;2.53;;
27505;SDS011;14939;43.596;1.320;2023-04-16T02:41:14;10.80;;;2.38;;
27505;SDS011;14939;43.596;1.320;2023-04-16T02:43:45;11.77;;;2.05;;
27505;SDS011;14939;43.596;1.320;2023-04-16T02:46:34;9.48;;;1.95;;
27505;SDS011;14939;43.596;1.320;2023-04-16T02:49:02;11.02;;;2.40;;
27505;SDS011;14939;43.596;1.320;2023-04-16T02:51:45;11.82;;;2.35;;
27505;SDS011;14939;43.596;1.320;2023-04-16T02:54:31;10.57;;;2.40;;
27505;SDS011;14939;43.596;1.320;2023-04-16T02:57:13;11.90;;;2.25;;
27505;SDS011;14939;43.596;1.320;2023-04-16T02:59:42;13.88;;;2.03;;
27505;SDS011;14939;43.596;1.320;2023-04-16T03:02:22;12.05;;;2.45;;
27505;SDS011;14939;43.596;1.320;2023-04-16T03:05:20;13.70;;;2.30;;
27505;SDS011;14939;43.596;1.320;2023-04-16T03:07:54;9.48;;;1.95;;
27505;SDS011;14939;43.596;1.320;2023-04-16T03:10:27;9.73;;;2.67;;
27505;SDS011;14939;43.596;1.320;2023-04-16T03:12:53;11.35;;;2.20;;
27505;SDS011;14939;43.596;1.320;2023-04-16T03:15:25;20.37;;;2.53;;
27505;SDS011;14939;43.596;1.320;2023-04-16T03:18:02;11.60;;;2.63;;
27505;SDS011;14939;43.596;1.320;2023-04-16T03:20:57;13.10;;;2.30;;
27505;SDS011;14939;43.596;1.320;2023-04-16T03:23:28;11.40;;;2.20;;
27505;SDS011;14939;43.596;1.320;2023-04-16T03:26:13;16.08;;;2.80;;
27505;SDS011;14939;43.596;1.320;2023-04-16T03:31:42;10.57;;;2.25;;
27505;SDS011;14939;43.596;1.320;2023-04-16T03:34:18;11.02;;;2.00;;
27505;SDS011;14939;43.596;1.320;2023-04-16T03:36:50;11.38;;;2.00;;
27505;SDS011;14939;43.596;1.320;2023-04-16T03:39:45;16.98;;;2.90;;
27505;SDS011;14939;43.596;1.320;2023-04-16T03:42:12;9.55;;;2.40;;
27505;SDS011;14939;43.596;1.320;2023-04-16T03:44:48;14.02;;;2.70;;
27505;SDS011;14939;43.596;1.320;2023-04-16T03:47:21;18.98;;;3.13;;
27505;SDS011;14939;43.596;1.320;2023-04-16T03:50:08;12.75;;;2.63;;
27505;SDS011;14939;43.596;1.320;2023-04-16T03:53:03;16.13;;;2.80;;
27505;SDS011;14939;43.596;1.320;2023-04-16T03:55:47;16.58;;;3.25;;
27505;SDS011;14939;43.596;1.320;2023-04-16T03:58:25;14.05;;;2.90;;
27505;SDS011;14939;43.596;1.320;2023-04-16T04:00:57;14.00;;;2.80;;
27505;SDS011;14939;43.596;1.320;2023-04-16T04:03:35;10.63;;;2.53;;
27505;SDS011;14939;43.596;1.320;2023-04-16T04:06:21;10.00;;;3.10;;
27505;SDS011;14939;43.596;1.320;2023-04-16T04:14:35;11.68;;;2.53;;
27505;SDS011;14939;43.596;1.320;2023-04-16T04:17:13;11.95;;;2.33;;
27505;SDS011;14939;43.596;1.320;2023-04-16T04:19:45;14.35;;;2.25;;
27505;SDS011;14939;43.596;1.320;2023-04-16T04:22:29;13.18;;;3.03;;
27505;SDS011;14939;43.596;1.320;2023-04-16T04:25:10;9.63;;;2.40;;
27505;SDS011;14939;43.596;1.320;2023-04-16T04:27:58;16.33;;;2.85;;
27505;SDS011;14939;43.596;1.320;2023-04-16T04:30:39;18.15;;;2.83;;
27505;SDS011;14939;43.596;1.320;2023-04-16T04:33:06;11.65;;;2.55;;
27505;SDS011;14939;43.596;1.320;2023-04-16T04:35:40;11.73;;;2.47;;
27505;SDS011;14939;43.596;1.320;2023-04-16T04:38:18;13.43;;;2.90;;
27505;SDS011;14939;43.596;1.320;2023-04-16T04:40:56;11.60;;;2.78;;
27505;SDS011;14939;43.596;1.320;2023-04-16T04:43:23;16.48;;;2.60;;
27505;SDS011;14939;43.596;1.320;2023-04-16T04:46:08;19.80;;;3.27;;
27505;SDS011;14939;43.596;1.320;2023-04-16T04:48:44;10.85;;;2.85;;
27505;SDS011;14939;43.596;1.320;2023-04-16T04:51:35;14.53;;;3.07;;
27505;SDS011;14939;43.596;1.320;2023-04-16T04:57:19;10.32;;;2.92;;
27505;SDS011;14939;43.596;1.320;2023-04-16T04:59:46;14.43;;;2.75;;
27505;SDS011;14939;43.596;1.320;2023-04-16T05:02:21;11.73;;;2.75;;
27505;SDS011;14939;43.596;1.320;2023-04-16T05:05:10;11.10;;;2.42;;
27505;SDS011;14939;43.596;1.320;2023-04-16T05:07:39;12.45;;;2.60;;
27505;SDS011;14939;43.596;1.320;2023-04-16T05:10:06;14.18;;;2.67;;
27505;SDS011;14939;43.596;1.320;2023-04-16T05:12:43;14.10;;;2.55;;
27505;SDS011;14939;43.596;1.320;2023-04-16T05:15:33;19.55;;;3.20;;
27505;SDS011;14939;43.596;1.320;2023-04-16T05:18:09;14.00;;;2.47;;
27505;SDS011;14939;43.596;1.320;2023-04-16T05:20:43;18.25;;;2.75;;
27505;SDS011;14939;43.596;1.320;2023-04-16T05:23:24;17.88;;;2.53;;
27505;SDS011;14939;43.596;1.320;2023-04-16T05:26:02;17.73;;;3.15;;
27505;SDS011;14939;43.596;1.320;2023-04-16T05:28:28;11.88;;;2.55;;
27505;SDS011;14939;43.596;1.320;2023-04-16T05:31:01;18.45;;;4.13;;
27505;SDS011;14939;43.596;1.320;2023-04-16T05:33:33;16.65;;;4.82;;
27505;SDS011;14939;43.596;1.320;2023-04-16T05:36:01;16.58;;;3.10;;
27505;SDS011;14939;43.596;1.320;2023-04-16T05:38:56;14.57;;;3.97;;
27505;SDS011;14939;43.596;1.320;2023-04-16T05:42:04;10.23;;;3.75;;
27505;SDS011;14939;43.596;1.320;2023-04-16T05:44:39;24.83;;;4.18;;
27505;SDS011;14939;43.596;1.320;2023-04-16T05:47:21;12.15;;;3.20;;
27505;SDS011;14939;43.596;1.320;2023-04-16T05:52:46;15.45;;;2.92;;
27505;SDS011;14939;43.596;1.320;2023-04-16T05:55:22;14.25;;;2.78;;
27505;SDS011;14939;43.596;1.320;2023-04-16T05:57:56;8.57;;;2.00;;
27505;SDS011;14939;43.596;1.320;2023-04-16T06:00:31;16.75;;;3.55;;
27505;SDS011;14939;43.596;1.320;2023-04-16T06:03:20;13.32;;;3.42;;
27505;SDS011;14939;43.596;1.320;2023-04-16T06:05:54;9.38;;;3.13;;
27505;SDS011;14939;43.596;1.320;2023-04-16T06:08:28;14.25;;;2.95;;
27505;SDS011;14939;43.596;1.320;2023-04-16T06:10:57;16.88;;;3.33;;
27505;SDS011;14939;43.596;1.320;2023-04-16T06:13:26;17.58;;;2.85;;
27505;SDS011;14939;43.596;1.320;2023-04-16T06:16:01;15.55;;;2.85;;
27505;SDS011;14939;43.596;1.320;2023-04-16T06:18:37;15.70;;;2.78;;
27505;SDS011;14939;43.596;1.320;2023-04-16T06:23:32;9.55;;;2.22;;
27505;SDS011;14939;43.596;1.320;2023-04-16T06:26:07;13.77;;;2.95;;
27505;SDS011;14939;43.596;1.320;2023-04-16T06:30:59;8.20;;;2.25;;
27505;SDS011;14939;43.596;1.320;2023-04-16T06:33:28;17.80;;;2.67;;
27505;SDS011;14939;43.596;1.320;2023-04-16T06:36:00;9.18;;;1.95;;
27505;SDS011;14939;43.596;1.320;2023-04-16T06:38:26;10.68;;;2.50;;
27505;SDS011;14939;43.596;1.320;2023-04-16T06:40:55;12.90;;;3.00;;
27505;SDS011;14939;43.596;1.320;2023-04-16T06:43:30;9.68;;;2.10;;
27505;SDS011;14939;43.596;1.320;2023-04-16T06:45:59;10.75;;;2.67;;
27505;SDS011;14939;43.596;1.320;2023-04-16T06:48:26;12.52;;;2.20;;
27505;SDS011;14939;43.596;1.320;2023-04-16T06:50:52;12.52;;;2.63;;
27505;SDS011;14939;43.596;1.320;2023-04-16T06:53:21;16.75;;;2.90;;
27505;SDS011;14939;43.596;1.320;2023-04-16T06:55:50;14.90;;;2.40;;
27505;SDS011;14939;43.596;1.320;2023-04-16T06:58:22;12.13;;;2.15;;
27505;SDS011;14939;43.596;1.320;2023-04-16T07:00:52;8.88;;;2.30;;
27505;SDS011;14939;43.596;1.320;2023-04-16T07:03:21;11.88;;;2.88;;
27505;SDS011;14939;43.596;1.320;2023-04-16T07:05:53;12.23;;;2.40;;
27505;SDS011;14939;43.596;1.320;2023-04-16T07:08:25;11.00;;;2.50;;
27505;SDS011;14939;43.596;1.320;2023-04-16T07:10:54;9.95;;;2.20;;
27505;SDS011;14939;43.596;1.320;2023-04-16T07:13:26;12.68;;;2.75;;
27505;SDS011;14939;43.596;1.320;2023-04-16T07:16:02;13.38;;;2.40;;
27505;SDS011;14939;43.596;1.320;2023-04-16T07:18:31;14.05;;;2.60;;
27505;SDS011;14939;43.596;1.320;2023-04-16T07:21:03;13.73;;;2.85;;
27505;SDS011;14939;43.596;1.320;2023-04-16T07:23:29;14.27;;;2.53;;
27505;SDS011;14939;43.596;1.320;2023-04-16T07:26:03;9.30;;;2.50;;
27505;SDS011;14939;43.596;1.320;2023-04-16T07:28:32;9.60;;;2.60;;
27505;SDS011;14939;43.596;1.320;2023-04-16T07:30:58;10.95;;;2.80;;
27505;SDS011;14939;43.596;1.320;2023-04-16T07:33:29;9.27;;;2.50;;
27505;SDS011;14939;43.596;1.320;2023-04-16T07:35:55;13.60;;;2.92;;
27505;SDS011;14939;43.596;1.320;2023-04-16T07:38:24;14.20;;;2.42;;
27505;SDS011;14939;43.596;1.320;2023-04-16T07:40:59;9.88;;;2.45;;
27505;SDS011;14939;43.596;1.320;2023-04-16T07:43:35;11.77;;;2.72;;
27505;SDS011;14939;43.596;1.320;2023-04-16T07:46:01;12.45;;;2.53;;
27505;SDS011;14939;43.596;1.320;2023-04-16T07:48:36;10.98;;;2.78;;
27505;SDS011;14939;43.596;1.320;2023-04-16T07:51:05;14.65;;;2.72;;
27505;SDS011;14939;43.596;1.320;2023-04-16T07:53:31;9.02;;;2.03;;
27505;SDS011;14939;43.596;1.320;2023-04-16T07:56:10;8.93;;;2.15;;
27505;SDS011;14939;43.596;1.320;2023-04-16T07:58:39;13.32;;;2.20;;
27505;SDS011;14939;43.596;1.320;2023-04-16T08:01:05;11.70;;;2.28;;
27505;SDS011;14939;43.596;1.320;2023-04-16T08:03:34;13.15;;;2.40;;
27505;SDS011;14939;43.596;1.320;2023-04-16T08:06:03;12.50;;;2.00;;
27505;SDS011;14939;43.596;1.320;2023-04-16T08:08:32;8.68;;;2.35;;
27505;SDS011;14939;43.596;1.320;2023-04-16T08:11:01;10.75;;;1.90;;
27505;SDS011;14939;43.596;1.320;2023-04-16T08:13:31;7.40;;;1.83;;
27505;SDS011;14939;43.596;1.320;2023-04-16T08:15:57;11.20;;;2.58;;
27505;SDS011;14939;43.596;1.320;2023-04-16T08:18:34;8.90;;;2.10;;
27505;SDS011;14939;43.596;1.320;2023-04-16T08:21:05;7.05;;;1.83;;
27505;SDS011;14939;43.596;1.320;2023-04-16T08:23:38;7.82;;;1.98;;
27505;SDS011;14939;43.596;1.320;2023-04-16T08:26:08;12.02;;;2.10;;
27505;SDS011;14939;43.596;1.320;2023-04-16T08:28:35;9.10;;;2.03;;
27505;SDS011;14939;43.596;1.320;2023-04-16T08:31:04;10.90;;;2.00;;
27505;SDS011;14939;43.596;1.320;2023-04-16T08:33:39;13.52;;;2.30;;
27505;SDS011;14939;43.596;1.320;2023-04-16T08:36:06;11.57;;;2.40;;
27505;SDS011;14939;43.596;1.320;2023-04-16T08:38:35;14.20;;;2.17;;
27505;SDS011;14939;43.596;1.320;2023-04-16T08:41:05;6.75;;;1.95;;
27505;SDS011;14939;43.596;1.320;2023-04-16T08:46:06;11.45;;;2.15;;
27505;SDS011;14939;43.596;1.320;2023-04-16T08:48:36;8.35;;;2.17;;
27505;SDS011;14939;43.596;1.320;2023-04-16T08:54:12;12.88;;;2.15;;
27505;SDS011;14939;43.596;1.320;2023-04-16T08:57:00;9.95;;;2.20;;
27505;SDS011;14939;43.596;1.320;2023-04-16T08:59:33;10.57;;;1.88;;
27505;SDS011;14939;43.596;1.320;2023-04-16T09:02:09;8.13;;;2.10;;
27505;SDS011;14939;43.596;1.320;2023-04-16T09:04:50;8.63;;;1.80;;
27505;SDS011;14939;43.596;1.320;2023-04-16T09:07:17;6.10;;;1.80;;
27505;SDS011;14939;43.596;1.320;2023-04-16T09:09:58;9.32;;;2.30;;
27505;SDS011;14939;43.596;1.320;2023-04-16T09:12:28;11.45;;;1.98;;
27505;SDS011;14939;43.596;1.320;2023-04-16T09:15:01;12.52;;;2.60;;
27505;SDS011;14939;43.596;1.320;2023-04-16T09:17:32;9.40;;;2.28;;
27505;SDS011;14939;43.596;1.320;2023-04-16T09:19:59;8.52;;;2.10;;
27505;SDS011;14939;43.596;1.320;2023-04-16T09:22:25;9.82;;;2.25;;
27505;SDS011;14939;43.596;1.320;2023-04-16T09:24:51;19.58;;;2.80;;
27505;SDS011;14939;43.596;1.320;2023-04-16T09:27:17;8.00;;;2.00;;
27505;SDS011;14939;43.596;1.320;2023-04-16T09:29:48;6.18;;;1.90;;
27505;SDS011;14939;43.596;1.320;2023-04-16T09:32:23;6.82;;;1.80;;
27505;SDS011;14939;43.596;1.320;2023-04-16T09:34:56;6.70;;;1.92;;
27505;SDS011;14939;43.596;1.320;2023-04-16T09:37:29;5.47;;;1.73;;
27505;SDS011;14939;43.596;1.320;2023-04-16T09:40:02;7.40;;;2.10;;
27505;SDS011;14939;43.596;1.320;2023-04-16T09:42:51;5.18;;;2.03;;
27505;SDS011;14939;43.596;1.320;2023-04-16T09:45:28;7.90;;;2.05;;
27505;SDS011;14939;43.596;1.320;2023-04-16T09:48:01;9.05;;;2.22;;
27505;SDS011;14939;43.596;1.320;2023-04-16T09:50:29;4.35;;;1.38;;
27505;SDS011;14939;43.596;1.320;2023-04-16T09:52:55;6.32;;;1.63;;
27505;SDS011;14939;43.596;1.320;2023-04-16T09:55:31;8.10;;;2.00;;
27505;SDS011;14939;43.596;1.320;2023-04-16T09:58:04;6.57;;;1.67;;
27505;SDS011;14939;43.596;1.320;2023-04-16T10:00:33;7.47;;;1.90;;
27505;SDS011;14939;43.596;1.320;2023-04-16T10:03:03;8.95;;;2.17;;
27505;SDS011;14939;43.596;1.320;2023-04-16T10:05:36;7.68;;;1.77;;
27505;SDS011;14939;43.596;1.320;2023-04-16T10:08:13;7.68;;;1.80;;
27505;SDS011;14939;43.596;1.320;2023-04-16T10:10:43;7.10;;;1.60;;
27505;SDS011;14939;43.596;1.320;2023-04-16T10:13:18;6.30;;;1.80;;
27505;SDS011;14939;43.596;1.320;2023-04-16T10:15:55;6.47;;;1.92;;
27505;SDS011;14939;43.596;1.320;2023-04-16T10:21:20;6.85;;;1.73;;
27505;SDS011;14939;43.596;1.320;2023-04-16T10:23:57;9.27;;;2.28;;
27505;SDS011;14939;43.596;1.320;2023-04-16T10:26:39;5.45;;;1.42;;
27505;SDS011;14939;43.596;1.320;2023-04-16T10:29:12;5.35;;;1.98;;
27505;SDS011;14939;43.596;1.320;2023-04-16T10:31:41;4.60;;;1.63;;
27505;SDS011;14939;43.596;1.320;2023-04-16T10:34:21;5.65;;;1.58;;
27505;SDS011;14939;43.596;1.320;2023-04-16T10:36:57;11.25;;;2.17;;
27505;SDS011;14939;43.596;1.320;2023-04-16T10:39:29;4.63;;;1.33;;
27505;SDS011;14939;43.596;1.320;2023-04-16T10:42:14;4.95;;;1.60;;
27505;SDS011;14939;43.596;1.320;2023-04-16T10:44:49;7.70;;;1.60;;
27505;SDS011;14939;43.596;1.320;2023-04-16T10:47:18;4.55;;;1.60;;
27505;SDS011;14939;43.596;1.320;2023-04-16T10:49:52;5.53;;;1.50;;
27505;SDS011;14939;43.596;1.320;2023-04-16T10:52:18;8.43;;;1.75;;
27505;SDS011;14939;43.596;1.320;2023-04-16T10:54:49;7.70;;;1.67;;
27505;SDS011;14939;43.596;1.320;2023-04-16T10:57:26;6.07;;;1.50;;
27505;SDS011;14939;43.596;1.320;2023-04-16T11:00:24;5.70;;;1.98;;
27505;SDS011;14939;43.596;1.320;2023-04-16T11:03:03;5.20;;;1.83;;
27505;SDS011;14939;43.596;1.320;2023-04-16T11:05:43;5.95;;;1.40;;
27505;SDS011;14939;43.596;1.320;2023-04-16T11:08:24;6.85;;;1.73;;
27505;SDS011;14939;43.596;1.320;2023-04-16T11:11:03;6.32;;;1.45;;
27505;SDS011;14939;43.596;1.320;2023-04-16T11:13:31;3.63;;;1.40;;
27505;SDS011;14939;43.596;1.320;2023-04-16T11:16:05;7.15;;;1.90;;
27505;SDS011;14939;43.596;1.320;2023-04-16T11:18:38;6.78;;;2.00;;
27505;SDS011;14939;43.596;1.320;2023-04-16T11:21:11;5.13;;;1.42;;
27505;SDS011;14939;43.596;1.320;2023-04-16T11:23:50;7.88;;;1.95;;
27505;SDS011;14939;43.596;1.320;2023-04-16T11:26:28;3.25;;;1.30;;
27505;SDS011;14939;43.596;1.320;2023-04-16T11:29:10;4.55;;;1.58;;
27505;SDS011;14939;43.596;1.320;2023-04-16T11:31:50;4.63;;;1.55;;
27505;SDS011;14939;43.596;1.320;2023-04-16T11:34:17;7.35;;;1.40;;
27505;SDS011;14939;43.596;1.320;2023-04-16T11:36:50;4.75;;;1.63;;
27505;SDS011;14939;43.596;1.320;2023-04-16T11:39:22;4.05;;;1.55;;
27505;SDS011;14939;43.596;1.320;2023-04-16T11:41:50;5.47;;;1.70;;
27505;SDS011;14939;43.596;1.320;2023-04-16T11:44:28;6.28;;;1.80;;
27505;SDS011;14939;43.596;1.320;2023-04-16T11:47:29;6.70;;;2.38;;
27505;SDS011;14939;43.596;1.320;2023-04-16T11:50:14;3.55;;;1.67;;
27505;SDS011;14939;43.596;1.320;2023-04-16T11:52:46;3.78;;;1.40;;
27505;SDS011;14939;43.596;1.320;2023-04-16T11:55:13;4.85;;;1.60;;
27505;SDS011;14939;43.596;1.320;2023-04-16T11:57:43;6.82;;;1.85;;
27505;SDS011;14939;43.596;1.320;2023-04-16T12:00:15;4.28;;;1.85;;
27505;SDS011;14939;43.596;1.320;2023-04-16T12:02:49;5.95;;;1.63;;
27505;SDS011;14939;43.596;1.320;2023-04-16T12:05:38;7.90;;;1.80;;
27505;SDS011;14939;43.596;1.320;2023-04-16T12:08:15;4.90;;;1.90;;
27505;SDS011;14939;43.596;1.320;2023-04-16T12:10:58;5.55;;;1.77;;
27505;SDS011;14939;43.596;1.320;2023-04-16T12:13:27;6.70;;;1.80;;
27505;SDS011;14939;43.596;1.320;2023-04-16T12:16:19;6.28;;;1.75;;
27505;SDS011;14939;43.596;1.320;2023-04-16T12:19:00;6.43;;;1.70;;
27505;SDS011;14939;43.596;1.320;2023-04-16T12:21:39;5.30;;;1.88;;
27505;SDS011;14939;43.596;1.320;2023-04-16T12:24:14;5.68;;;1.80;;
27505;SDS011;14939;43.596;1.320;2023-04-16T12:26:51;7.03;;;2.23;;
27505;SDS011;14939;43.596;1.320;2023-04-16T12:29:27;5.65;;;2.30;;
27505;SDS011;14939;43.596;1.320;2023-04-16T12:31:59;5.25;;;1.80;;
27505;SDS011;14939;43.596;1.320;2023-04-16T12:34:32;4.53;;;1.73;;
27505;SDS011;14939;43.596;1.320;2023-04-16T12:37:14;6.77;;;2.53;;
27505;SDS011;14939;43.596;1.320;2023-04-16T12:39:41;3.20;;;1.98;;
27505;SDS011;14939;43.596;1.320;2023-04-16T12:42:10;3.78;;;1.98;;
27505;SDS011;14939;43.596;1.320;2023-04-16T12:44:40;6.25;;;1.85;;
27505;SDS011;14939;43.596;1.320;2023-04-16T12:47:14;5.97;;;1.67;;
27505;SDS011;14939;43.596;1.320;2023-04-16T12:49:46;5.47;;;1.75;;
27505;SDS011;14939;43.596;1.320;2023-04-16T12:52:29;5.60;;;1.90;;
27505;SDS011;14939;43.596;1.320;2023-04-16T12:55:01;3.58;;;1.70;;
27505;SDS011;14939;43.596;1.320;2023-04-16T12:59:57;3.08;;;1.50;;
27505;SDS011;14939;43.596;1.320;2023-04-16T13:02:26;4.30;;;2.05;;
27505;SDS011;14939;43.596;1.320;2023-04-16T13:05:04;2.60;;;1.48;;
27505;SDS011;14939;43.596;1.320;2023-04-16T13:07:34;3.75;;;1.67;;
27505;SDS011;14939;43.596;1.320;2023-04-16T13:10:06;4.20;;;1.52;;
27505;SDS011;14939;43.596;1.320;2023-04-16T13:12:36;5.50;;;2.10;;
27505;SDS011;14939;43.596;1.320;2023-04-16T13:15:11;5.47;;;1.75;;
27505;SDS011;14939;43.596;1.320;2023-04-16T13:17:37;6.13;;;1.85;;
27505;SDS011;14939;43.596;1.320;2023-04-16T13:20:09;3.38;;;1.63;;
27505;SDS011;14939;43.596;1.320;2023-04-16T13:22:39;5.72;;;1.73;;
27505;SDS011;14939;43.596;1.320;2023-04-16T13:25:20;5.47;;;1.88;;
27505;SDS011;14939;43.596;1.320;2023-04-16T13:27:47;5.72;;;1.45;;
27505;SDS011;14939;43.596;1.320;2023-04-16T13:30:13;4.95;;;1.75;;
27505;SDS011;14939;43.596;1.320;2023-04-16T13:35:24;3.80;;;1.20;;
27505;SDS011;14939;43.596;1.320;2023-04-16T13:37:51;3.95;;;1.58;;
27505;SDS011;14939;43.596;1.320;2023-04-16T13:40:21;3.40;;;1.30;;
27505;SDS011;14939;43.596;1.320;2023-04-16T13:42:58;5.50;;;1.58;;
27505;SDS011;14939;43.596;1.320;2023-04-16T13:45:52;6.95;;;1.60;;
27505;SDS011;14939;43.596;1.320;2023-04-16T13:48:31;4.05;;;1.60;;
27505;SDS011;14939;43.596;1.320;2023-04-16T13:51:04;5.00;;;1.30;;
27505;SDS011;14939;43.596;1.320;2023-04-16T13:53:30;5.05;;;1.40;;
27505;SDS011;14939;43.596;1.320;2023-04-16T13:56:06;3.17;;;1.35;;
27505;SDS011;14939;43.596;1.320;2023-04-16T13:58:43;2.67;;;1.15;;
27505;SDS011;14939;43.596;1.320;2023-04-16T14:01:23;2.65;;;1.10;;
27505;SDS011;14939;43.596;1.320;2023-04-16T14:04:05;3.85;;;1.30;;
27505;SDS011;14939;43.596;1.320;2023-04-16T14:06:32;3.45;;;1.67;;
27505;SDS011;14939;43.596;1.320;2023-04-16T14:09:02;4.72;;;1.50;;
27505;SDS011;14939;43.596;1.320;2023-04-16T14:11:28;3.40;;;1.30;;
27505;SDS011;14939;43.596;1.320;2023-04-16T14:14:03;3.15;;;1.10;;
27505;SDS011;14939;43.596;1.320;2023-04-16T14:16:29;3.20;;;1.10;;
27505;SDS011;14939;43.596;1.320;2023-04-16T14:19:03;3.97;;;1.30;;
27505;SDS011;14939;43.596;1.320;2023-04-16T14:21:36;3.50;;;1.13;;
27505;SDS011;14939;43.596;1.320;2023-04-16T14:24:19;4.47;;;1.30;;
27505;SDS011;14939;43.596;1.320;2023-04-16T14:26:53;4.90;;;1.58;;
27505;SDS011;14939;43.596;1.320;2023-04-16T14:29:22;2.95;;;1.00;;
27505;SDS011;14939;43.596;1.320;2023-04-16T14:32:03;2.70;;;1.30;;
27505;SDS011;14939;43.596;1.320;2023-04-16T14:34:42;2.47;;;1.15;;
27505;SDS011;14939;43.596;1.320;2023-04-16T14:37:20;3.47;;;1.10;;
27505;SDS011;14939;43.596;1.320;2023-04-16T14:39:49;1.83;;;1.10;;
27505;SDS011;14939;43.596;1.320;2023-04-16T14:42:36;3.42;;;1.10;;
27505;SDS011;14939;43.596;1.320;2023-04-16T14:45:03;3.08;;;1.10;;
27505;SDS011;14939;43.596;1.320;2023-04-16T14:47:37;3.55;;;1.38;;
27505;SDS011;14939;43.596;1.320;2023-04-16T14:50:10;2.40;;;1.10;;
27505;SDS011;14939;43.596;1.320;2023-04-16T14:52:56;3.97;;;1.80;;
27505;SDS011;14939;43.596;1.320;2023-04-16T14:55:36;5.05;;;1.02;;
27505;SDS011;14939;43.596;1.320;2023-04-16T14:58:08;3.90;;;1.45;;
27505;SDS011;14939;43.596;1.320;2023-04-16T15:03:09;5.25;;;1.13;;
27505;SDS011;14939;43.596;1.320;2023-04-16T15:05:39;3.60;;;1.20;;
27505;SDS011;14939;43.596;1.320;2023-04-16T15:08:18;2.53;;;1.30;;
27505;SDS011;14939;43.596;1.320;2023-04-16T15:10:47;1.77;;;1.08;;
27505;SDS011;14939;43.596;1.320;2023-04-16T15:16:01;4.78;;;1.40;;
27505;SDS011;14939;43.596;1.320;2023-04-16T15:18:31;1.77;;;1.00;;
27505;SDS011;14939;43.596;1.320;2023-04-16T15:21:09;2.22;;;1.10;;
27505;SDS011;14939;43.596;1.320;2023-04-16T15:23:40;3.25;;;1.20;;
27505;SDS011;14939;43.596;1.320;2023-04-16T15:26:07;2.45;;;1.05;;
27505;SDS011;14939;43.596;1.320;2023-04-16T15:28:54;1.85;;;1.00;;
27505;SDS011;14939;43.596;1.320;2023-04-16T15:31:23;3.22;;;1.02;;
27505;SDS011;14939;43.596;1.320;2023-04-16T15:33:59;2.58;;;1.10;;
27505;SDS011;14939;43.596;1.320;2023-04-16T15:36:26;3.20;;;1.05;;
27505;SDS011;14939;43.596;1.320;2023-04-16T15:38:52;4.03;;;1.13;;
27505;SDS011;14939;43.596;1.320;2023-04-16T15:41:19;2.30;;;1.05;;
27505;SDS011;14939;43.596;1.320;2023-04-16T15:43:49;3.70;;;1.13;;
27505;SDS011;14939;43.596;1.320;2023-04-16T15:46:26;2.35;;;1.23;;
27505;SDS011;14939;43.596;1.320;2023-04-16T15:49:06;2.92;;;1.27;;
27505;SDS011;14939;43.596;1.320;2023-04-16T15:51:38;2.22;;;1.40;;
27505;SDS011;14939;43.596;1.320;2023-04-16T15:54:08;1.73;;;0.98;;
27505;SDS011;14939;43.596;1.320;2023-04-16T15:56:48;1.63;;;1.00;;
27505;SDS011;14939;43.596;1.320;2023-04-16T15:59:18;4.82;;;1.30;;
27505;SDS011;14939;43.596;1.320;2023-04-16T16:01:47;2.95;;;1.15;;
27505;SDS011;14939;43.596;1.320;2023-04-16T16:06:45;2.75;;;1.08;;
27505;SDS011;14939;43.596;1.320;2023-04-16T16:09:18;1.88;;;0.82;;
27505;SDS011;14939;43.596;1.320;2023-04-16T16:14:50;4.07;;;1.00;;
27505;SDS011;14939;43.596;1.320;2023-04-16T16:17:37;3.78;;;1.20;;
27505;SDS011;14939;43.596;1.320;2023-04-16T16:20:12;1.67;;;0.93;;
27505;SDS011;14939;43.596;1.320;2023-04-16T16:22:58;2.03;;;1.02;;
27505;SDS011;14939;43.596;1.320;2023-04-16T16:25:25;2.50;;;1.00;;
27505;SDS011;14939;43.596;1.320;2023-04-16T16:28:13;2.20;;;0.90;;
27505;SDS011;14939;43.596;1.320;2023-04-16T16:30:48;1.70;;;0.95;;
27505;SDS011;14939;43.596;1.320;2023-04-16T16:33:15;2.35;;;0.80;;
27505;SDS011;14939;43.596;1.320;2023-04-16T16:35:47;0.77;;;0.77;;
27505;SDS011;14939;43.596;1.320;2023-04-16T16:38:13;6.40;;;1.20;;